createdAt,value
2023-03-02T00:00:43.275Z,101246.59
2023-03-02T00:04:57.198Z,101250.23
2023-03-02T00:09:06.314Z,101252.88
2023-03-02T00:13:14.762Z,101250.48
2023-03-02T00:17:28.953Z,101250.68
2023-03-02T00:21:37.882Z,101255.08
2023-03-02T00:25:45.227Z,101250.33
2023-03-02T00:29:52.812Z,101248.84
2023-03-02T00:34:00.587Z,101250.46
2023-03-02T00:38:09.084Z,101244.90
2023-03-02T00:42:17.461Z,101245.90
2023-03-02T00:46:26.279Z,101243.73
2023-03-02T00:50:34.177Z,101236.54
2023-03-02T00:54:41.949Z,101234.83
2023-03-02T00:58:49.749Z,101228.61
2023-03-02T01:02:59.457Z,101226.51
2023-03-02T01:07:11.173Z,101228.85
2023-03-02T01:11:21.222Z,101223.55
2023-03-02T01:15:33.317Z,101220.86
2023-03-02T01:19:41.737Z,101215.80
2023-03-02T01:23:51.844Z,101202.37
2023-03-02T01:27:59.973Z,101191.94
2023-03-02T01:32:08.074Z,101188.33
2023-03-02T01:36:16.595Z,101184.00
2023-03-02T01:40:23.746Z,101180.39
2023-03-02T01:44:43.586Z,101176.61
2023-03-02T01:48:55.982Z,101173.51
2023-03-02T01:53:04.789Z,101172.95
2023-03-02T01:57:14.774Z,101171.11
2023-03-02T02:01:22.157Z,101168.31
2023-03-02T02:05:29.702Z,101162.83
2023-03-02T02:09:40.447Z,101154.16
2023-03-02T02:13:48.020Z,101154.43
2023-03-02T02:17:57.913Z,101152.63
2023-03-02T02:22:06.666Z,101148.58
2023-03-02T02:26:23.750Z,101147.14
2023-03-02T02:30:32.183Z,101143.73
2023-03-02T02:34:44.031Z,101144.58
2023-03-02T02:38:55.790Z,101144.13
2023-03-02T02:43:03.251Z,101140.41
2023-03-02T02:47:16.201Z,101141.29
2023-03-02T02:51:26.863Z,101142.33
2023-03-02T02:55:35.927Z,101143.55
2023-03-02T02:59:47.120Z,101140.28
2023-03-02T03:03:57.490Z,101135.95
2023-03-02T03:08:30.456Z,101132.06
2023-03-02T03:12:38.345Z,101134.85
2023-03-02T03:16:47.482Z,101131.89
2023-03-02T03:20:57.217Z,101134.07
2023-03-02T03:25:05.520Z,101127.73
2023-03-02T03:29:13.483Z,101129.94
2023-03-02T03:33:21.097Z,101129.00
2023-03-02T03:37:29.434Z,101132.52
2023-03-02T03:41:37.227Z,101124.18
2023-03-02T03:45:44.482Z,101125.66
2023-03-02T03:49:53.052Z,101123.19
2023-03-02T03:54:01.238Z,101118.21
2023-03-02T03:58:08.982Z,101120.23
2023-03-02T04:02:16.968Z,101117.90
2023-03-02T04:06:24.826Z,101117.15
2023-03-02T04:10:32.457Z,101118.82
2023-03-02T04:14:40.563Z,101115.69
2023-03-02T04:18:48.323Z,101115.20
2023-03-02T04:22:57.227Z,101111.67
2023-03-02T04:27:05.439Z,101106.66
2023-03-02T04:31:13.127Z,101103.16
2023-03-02T04:35:21.409Z,101106.05
2023-03-02T04:39:29.508Z,101107.66
2023-03-02T04:43:37.383Z,101105.50
2023-03-02T04:47:46.326Z,101103.05
2023-03-02T04:51:54.544Z,101103.86
2023-03-02T04:56:02.340Z,101103.63
2023-03-02T05:00:13.426Z,101107.30
2023-03-02T05:04:21.727Z,101108.41
2023-03-02T05:08:29.447Z,101107.11
2023-03-02T05:12:54.556Z,101107.60
2023-03-02T05:17:04.943Z,101107.30
2023-03-02T05:21:12.865Z,101107.85
2023-03-02T05:25:22.936Z,101113.91
2023-03-02T05:29:30.593Z,101112.33
2023-03-02T05:33:37.914Z,101111.60
2023-03-02T05:37:45.722Z,101107.67
2023-03-02T05:41:53.891Z,101108.45
2023-03-02T05:46:01.668Z,101107.59
2023-03-02T05:50:15.492Z,101106.02
2023-03-02T05:54:24.124Z,101110.29
2023-03-02T05:58:32.827Z,101115.78
2023-03-02T06:02:41.124Z,101120.95
2023-03-02T06:06:48.808Z,101120.31
2023-03-02T06:11:00.016Z,101129.45
2023-03-02T06:15:09.519Z,101131.45
2023-03-02T06:19:17.714Z,101133.97
2023-03-02T06:23:25.224Z,101129.55
2023-03-02T06:27:32.493Z,101129.05
2023-03-02T06:31:40.411Z,101129.88
2023-03-02T06:35:48.262Z,101134.08
2023-03-02T06:39:55.651Z,101136.92
2023-03-02T06:44:03.074Z,101137.90
2023-03-02T06:48:10.904Z,101139.68
2023-03-02T06:52:19.434Z,101139.15
2023-03-02T06:56:27.181Z,101135.81
2023-03-02T07:00:35.104Z,101134.33
2023-03-02T07:04:43.293Z,101136.83
2023-03-02T07:08:53.478Z,101138.68
2023-03-02T07:13:01.329Z,101134.38
2023-03-02T07:17:09.040Z,101133.15
2023-03-02T07:21:16.805Z,101140.20
2023-03-02T07:25:25.926Z,101143.73
2023-03-02T07:29:33.585Z,101144.64
2023-03-02T07:33:42.696Z,101137.84
2023-03-02T07:37:50.378Z,101131.41
2023-03-02T07:42:01.220Z,101128.36
2023-03-02T07:46:08.672Z,101123.53
2023-03-02T07:50:17.897Z,101122.70
2023-03-02T07:54:27.620Z,101122.00
2023-03-02T07:58:35.495Z,101115.52
2023-03-02T08:02:43.981Z,101114.62
2023-03-02T08:06:53.249Z,101109.58
2023-03-02T08:11:07.890Z,101109.81
2023-03-02T08:15:15.823Z,101108.65
2023-03-02T08:19:23.707Z,101113.40
2023-03-02T08:23:31.720Z,101107.46
2023-03-02T08:27:40.347Z,101107.73
2023-03-02T08:31:48.469Z,101111.48
2023-03-02T08:36:00.356Z,101112.07
2023-03-02T08:40:10.268Z,101111.59
2023-03-02T08:44:18.621Z,101111.14
2023-03-02T08:48:27.858Z,101116.60
2023-03-02T08:52:37.298Z,101114.58
2023-03-02T08:56:45.096Z,101111.66
2023-03-02T09:00:53.641Z,101108.05
2023-03-02T09:05:01.495Z,101102.48
2023-03-02T09:09:09.870Z,101101.44
2023-03-02T09:13:17.740Z,101098.63
2023-03-02T09:17:25.829Z,101092.36
2023-03-02T09:21:33.664Z,101086.20
2023-03-02T09:25:41.884Z,101079.75
2023-03-02T09:29:49.685Z,101078.84
2023-03-02T09:33:58.362Z,101074.61
2023-03-02T09:38:06.098Z,101067.95
2023-03-02T09:42:25.410Z,101067.39
2023-03-02T09:46:37.779Z,101064.01
2023-03-02T09:50:53.787Z,101064.48
2023-03-02T09:55:03.664Z,101065.80
2023-03-02T09:59:20.264Z,101060.65
2023-03-02T10:03:34.321Z,101061.27
2023-03-02T10:07:42.163Z,101055.08
2023-03-02T10:11:59.089Z,101051.88
2023-03-02T10:16:17.708Z,101050.40
2023-03-02T10:20:34.615Z,101047.14
2023-03-02T10:24:46.621Z,101046.85
2023-03-02T10:29:04.980Z,101044.27
2023-03-02T10:33:18.988Z,101041.23
2023-03-02T10:37:30.699Z,101038.86
2023-03-02T10:41:42.418Z,101035.79
2023-03-02T10:46:02.667Z,101037.11
2023-03-02T10:50:25.077Z,101030.53
2023-03-02T10:54:34.691Z,101024.72
2023-03-02T10:58:43.678Z,101015.83
2023-03-02T11:02:56.434Z,101014.52
2023-03-02T11:07:13.225Z,101006.33
2023-03-02T11:11:26.373Z,100998.58
2023-03-02T11:15:41.506Z,100994.46
2023-03-02T11:19:49.901Z,100992.66
2023-03-02T11:24:05.055Z,100989.26
2023-03-02T11:28:18.380Z,100979.74
2023-03-02T11:32:32.282Z,100969.20
2023-03-02T11:36:47.544Z,100965.98
2023-03-02T11:40:58.947Z,100959.13
2023-03-02T11:45:18.903Z,100954.48
2023-03-02T11:49:29.854Z,100950.80
2023-03-02T11:53:43.915Z,100939.42
2023-03-02T11:57:54.202Z,100934.39
2023-03-02T12:02:03.418Z,100927.63
2023-03-02T12:06:29.892Z,100924.57
2023-03-02T12:10:40.577Z,100921.66
2023-03-02T12:14:49.210Z,100920.77
2023-03-02T12:18:57.326Z,100914.99
2023-03-02T12:23:23.224Z,100908.50
2023-03-02T12:27:37.561Z,100898.17
2023-03-02T12:31:48.662Z,100894.96
2023-03-02T12:36:08.630Z,100887.92
2023-03-02T12:40:29.073Z,100889.61
2023-03-02T12:44:47.479Z,100887.92
2023-03-02T12:49:03.310Z,100879.02
2023-03-02T12:53:21.280Z,100872.54
2023-03-02T12:57:29.197Z,100867.98
2023-03-02T13:01:37.935Z,100868.30
2023-03-02T13:05:46.575Z,100865.64
2023-03-02T13:09:57.341Z,100861.36
2023-03-02T13:14:15.220Z,100851.65
2023-03-02T13:18:23.163Z,100846.33
2023-03-02T13:22:31.567Z,100844.38
2023-03-02T13:26:40.919Z,100837.33
2023-03-02T13:30:50.547Z,100829.00
2023-03-02T13:34:59.812Z,100824.75
2023-03-02T13:39:17.001Z,100818.41
2023-03-02T13:43:38.450Z,100815.02
2023-03-02T13:47:46.049Z,100807.77
2023-03-02T13:52:03.217Z,100801.92
2023-03-02T13:56:14.476Z,100794.34
2023-03-02T14:00:24.658Z,100786.72
2023-03-02T14:04:33.092Z,100782.96
2023-03-02T14:08:41.129Z,100778.31
2023-03-02T14:12:53.725Z,100777.06
2023-03-02T14:17:01.644Z,100770.39
2023-03-02T14:21:12.885Z,100768.71
2023-03-02T14:25:21.295Z,100760.15
2023-03-02T14:29:32.329Z,100754.00
2023-03-02T14:33:40.488Z,100738.21
2023-03-02T14:37:51.390Z,100734.79
2023-03-02T14:41:59.359Z,100730.96
2023-03-02T14:46:07.108Z,100723.96
2023-03-02T14:50:17.238Z,100724.11
2023-03-02T14:54:25.224Z,100720.51
2023-03-02T14:58:36.050Z,100718.38
2023-03-02T15:02:44.341Z,100717.58
2023-03-02T15:06:52.774Z,100715.75
2023-03-02T15:11:01.007Z,100716.02
2023-03-02T15:15:10.816Z,100713.39
2023-03-02T15:19:20.799Z,100709.40
2023-03-02T15:23:28.924Z,100700.88
2023-03-02T15:27:36.532Z,100704.17
2023-03-02T15:31:44.331Z,100702.98
2023-03-02T15:35:56.001Z,100707.23
2023-03-02T15:40:04.003Z,100704.60
2023-03-02T15:44:22.518Z,100711.14
2023-03-02T15:48:31.611Z,100707.15
2023-03-02T15:52:39.847Z,100707.33
2023-03-02T15:56:52.026Z,100705.38
2023-03-02T16:01:00.571Z,100706.02
2023-03-02T16:05:10.745Z,100702.23
2023-03-02T16:09:20.409Z,100706.05
2023-03-02T16:13:30.397Z,100702.27
2023-03-02T16:17:41.832Z,100703.23
2023-03-02T16:21:49.428Z,100701.75
2023-03-02T16:25:57.007Z,100704.97
2023-03-02T16:30:05.338Z,100704.99
2023-03-02T16:34:13.729Z,100706.45
2023-03-02T16:38:21.928Z,100705.81
2023-03-02T16:42:30.505Z,100708.23
2023-03-02T16:46:43.853Z,100712.02
2023-03-02T16:50:58.501Z,100717.81
2023-03-02T16:55:07.118Z,100732.50
2023-03-02T16:59:14.871Z,100743.72
2023-03-02T17:03:24.313Z,100745.28
2023-03-02T17:07:32.276Z,100755.52
2023-03-02T17:11:39.784Z,100762.87
2023-03-02T17:15:48.050Z,100767.45
2023-03-02T17:19:56.634Z,100773.40
2023-03-02T17:24:04.919Z,100773.73
2023-03-02T17:28:15.036Z,100775.57
2023-03-02T17:32:23.028Z,100775.60
2023-03-02T17:36:35.042Z,100776.95
2023-03-02T17:40:44.410Z,100784.29
2023-03-02T17:44:52.002Z,100780.81
2023-03-02T17:49:01.614Z,100777.55
2023-03-02T17:53:09.661Z,100775.77
2023-03-02T17:57:23.212Z,100775.23
2023-03-02T18:01:32.450Z,100779.31
2023-03-02T18:05:40.388Z,100781.02
2023-03-02T18:09:48.402Z,100780.95
2023-03-02T18:13:56.208Z,100783.55
2023-03-02T18:18:04.560Z,100785.50
2023-03-02T18:22:13.695Z,100784.27
2023-03-02T18:26:21.931Z,100790.21
2023-03-02T18:30:29.784Z,100795.93
2023-03-02T18:34:37.223Z,100796.20
2023-03-02T18:38:45.924Z,100793.90
2023-03-02T18:42:54.220Z,100799.08
2023-03-02T18:47:02.216Z,100803.00
2023-03-02T18:51:10.290Z,100807.33
2023-03-02T18:55:17.788Z,100806.77
2023-03-02T18:59:25.275Z,100808.35
2023-03-02T19:03:35.421Z,100808.88
2023-03-02T19:07:43.144Z,100812.10
2023-03-02T19:11:52.124Z,100806.28
2023-03-02T19:16:01.566Z,100809.77
2023-03-02T19:20:12.083Z,100812.21
2023-03-02T19:24:21.090Z,100809.53
2023-03-02T19:28:30.760Z,100813.37
2023-03-02T19:32:38.523Z,100818.70
2023-03-02T19:36:46.944Z,100821.80
2023-03-02T19:40:54.996Z,100820.14
2023-03-02T19:45:05.256Z,100821.41
2023-03-02T19:49:13.778Z,100815.86
2023-03-02T19:53:22.111Z,100815.18
2023-03-02T19:57:32.036Z,100817.80
2023-03-02T20:01:40.162Z,100819.90
2023-03-02T20:05:48.360Z,100824.47
2023-03-02T20:09:56.786Z,100827.77
2023-03-02T20:14:05.434Z,100828.48
2023-03-02T20:18:15.451Z,100838.08
2023-03-02T20:22:24.563Z,100834.23
2023-03-02T20:26:33.286Z,100834.77
2023-03-02T20:30:44.348Z,100833.00
2023-03-02T20:34:52.439Z,100831.23
2023-03-02T20:39:09.073Z,100824.27
2023-03-02T20:43:19.444Z,100819.73
2023-03-02T20:47:27.136Z,100822.50
2023-03-02T20:51:36.735Z,100824.77
2023-03-02T20:55:45.047Z,100830.01
2023-03-02T20:59:52.794Z,100833.52
2023-03-02T21:04:00.888Z,100831.08
2023-03-02T21:08:11.359Z,100826.53
2023-03-02T21:12:18.935Z,100823.03
2023-03-02T21:16:29.028Z,100818.64
2023-03-02T21:20:38.414Z,100817.77
2023-03-02T21:24:46.480Z,100819.53
2023-03-02T21:28:55.343Z,100816.77
2023-03-02T21:33:03.584Z,100819.89
2023-03-02T21:37:11.313Z,100818.64
2023-03-02T21:41:19.300Z,100817.94
2023-03-02T21:45:26.631Z,100811.27
2023-03-02T21:49:35.955Z,100804.23
2023-03-02T21:53:44.009Z,100798.99
2023-03-02T21:57:54.860Z,100791.31
2023-03-02T22:02:06.114Z,100789.57
2023-03-02T22:06:19.015Z,100792.02
2023-03-02T22:10:31.479Z,100794.13
2023-03-02T22:14:39.577Z,100797.13
2023-03-02T22:18:49.132Z,100795.77
2023-03-02T22:22:57.640Z,100798.89
2023-03-02T22:27:20.436Z,100802.41
2023-03-02T22:31:29.852Z,100798.77
2023-03-02T22:35:38.269Z,100796.50
2023-03-02T22:39:47.450Z,100795.29
2023-03-02T22:43:57.913Z,100793.19
2023-03-02T22:48:11.821Z,100789.85
2023-03-02T22:52:26.240Z,100783.23
2023-03-02T22:56:35.754Z,100778.87
2023-03-02T23:00:43.574Z,100778.85
2023-03-02T23:04:51.473Z,100778.16
2023-03-02T23:09:00.623Z,100770.66
2023-03-02T23:13:10.451Z,100765.40
2023-03-02T23:17:23.335Z,100757.20
2023-03-02T23:21:35.468Z,100748.14
2023-03-02T23:25:42.869Z,100754.08
2023-03-02T23:29:50.871Z,100752.50
2023-03-02T23:33:58.471Z,100751.82
2023-03-02T23:38:05.889Z,100753.41
2023-03-02T23:42:14.103Z,100755.34
2023-03-02T23:46:23.357Z,100748.04
2023-03-02T23:50:31.237Z,100741.25
2023-03-02T23:54:39.233Z,100741.79
2023-03-02T23:58:46.776Z,100743.72
